createdAt,value
2022-11-26T00:01:22.428Z,101694.00
2022-11-26T00:03:49.727Z,101694.00
2022-11-26T00:06:39.066Z,101697.00
2022-11-26T00:09:14.750Z,101691.00
2022-11-26T00:11:42.054Z,101699.00
2022-11-26T00:14:17.200Z,101700.00
2022-11-26T00:16:44.925Z,101703.00
2022-11-26T00:19:11.725Z,101701.00
2022-11-26T00:21:41.215Z,101702.00
2022-11-26T00:24:28.919Z,101711.00
2022-11-26T00:26:59.759Z,101712.00
2022-11-26T00:29:26.710Z,101707.00
2022-11-26T00:31:53.505Z,101711.00
2022-11-26T00:34:20.359Z,101719.00
2022-11-26T00:36:48.336Z,101714.00
2022-11-26T00:39:23.985Z,101709.00
2022-11-26T00:41:52.460Z,101716.00
2022-11-26T00:44:23.801Z,101718.00
2022-11-26T00:46:51.480Z,101728.00
2022-11-26T00:49:19.316Z,101729.00
2022-11-26T00:51:47.640Z,101726.00
2022-11-26T00:54:18.399Z,101734.00
2022-11-26T00:56:46.751Z,101746.00
2022-11-26T00:59:17.579Z,101734.00
2022-11-26T01:01:44.352Z,101731.00
2022-11-26T01:04:11.176Z,101737.00
2022-11-26T01:06:43.070Z,101745.00
2022-11-26T01:09:19.651Z,101759.00
2022-11-26T01:11:52.322Z,101755.00
2022-11-26T01:14:21.786Z,101758.00
2022-11-26T01:16:56.245Z,101755.00
2022-11-26T01:19:23.069Z,101762.00
2022-11-26T01:21:49.813Z,101768.00
2022-11-26T01:24:16.646Z,101768.00
2022-11-26T01:26:44.778Z,101768.00
2022-11-26T01:29:16.607Z,101761.00
2022-11-26T01:31:43.780Z,101774.00
2022-11-26T01:34:10.603Z,101784.00
2022-11-26T01:36:40.462Z,101779.00
2022-11-26T01:39:21.664Z,101784.00
2022-11-26T01:42:12.269Z,101783.00
2022-11-26T01:44:39.476Z,101783.00
2022-11-26T01:47:33.767Z,101783.00
2022-11-26T01:50:28.138Z,101782.00
2022-11-26T01:53:03.013Z,101791.00
2022-11-26T01:55:38.603Z,101785.00
2022-11-26T01:58:10.418Z,101781.00
2022-11-26T02:00:37.206Z,101794.00
2022-11-26T02:03:05.763Z,101794.00
2022-11-26T02:05:41.691Z,101786.00
2022-11-26T02:08:10.982Z,101787.00
2022-11-26T02:10:37.949Z,101793.00
2022-11-26T02:13:05.890Z,101797.00
2022-11-26T02:15:50.995Z,101795.00
2022-11-26T02:18:18.669Z,101803.00
2022-11-26T02:20:58.847Z,101814.00
2022-11-26T02:23:40.120Z,101822.00
2022-11-26T02:26:47.599Z,101811.00
2022-11-26T02:29:54.527Z,101819.00
2022-11-26T02:32:33.883Z,101820.00
2022-11-26T02:35:22.261Z,101822.00
2022-11-26T02:37:57.988Z,101829.00
2022-11-26T02:40:25.765Z,101838.00
2022-11-26T02:42:52.733Z,101831.00
2022-11-26T02:45:28.734Z,101836.00
2022-11-26T02:48:00.120Z,101832.00
2022-11-26T02:50:46.982Z,101832.00
2022-11-26T02:53:16.494Z,101840.00
2022-11-26T02:55:50.897Z,101840.00
2022-11-26T02:58:19.757Z,101840.00
2022-11-26T03:00:48.690Z,101840.00
2022-11-26T03:03:26.030Z,101848.00
2022-11-26T03:05:58.607Z,101843.00
2022-11-26T03:08:27.599Z,101833.00
2022-11-26T03:10:54.631Z,101825.00
2022-11-26T03:13:21.673Z,101824.00
2022-11-26T03:15:48.650Z,101829.00
2022-11-26T03:18:15.581Z,101843.00
2022-11-26T03:20:42.329Z,101841.00
2022-11-26T03:23:09.617Z,101844.00
2022-11-26T03:25:36.369Z,101843.00
2022-11-26T03:28:03.700Z,101846.00
2022-11-26T03:30:30.505Z,101858.00
2022-11-26T03:32:57.514Z,101861.00
2022-11-26T03:35:24.929Z,101859.00
2022-11-26T03:37:51.787Z,101864.00
2022-11-26T03:40:18.861Z,101864.00
2022-11-26T03:42:45.884Z,101874.00
2022-11-26T03:45:12.970Z,101874.00
2022-11-26T03:47:39.937Z,101876.00
2022-11-26T03:50:07.844Z,101873.00
2022-11-26T03:52:34.646Z,101871.00
2022-11-26T03:55:01.589Z,101877.00
2022-11-26T03:57:28.343Z,101879.00
2022-11-26T03:59:55.118Z,101885.00
2022-11-26T04:02:22.035Z,101889.00
2022-11-26T04:04:48.911Z,101898.00
2022-11-26T04:07:15.805Z,101895.00
2022-11-26T04:09:42.597Z,101899.00
2022-11-26T04:12:09.430Z,101911.00
2022-11-26T04:14:36.519Z,101913.00
2022-11-26T04:17:03.460Z,101909.00
2022-11-26T04:19:30.507Z,101917.00
2022-11-26T04:21:57.374Z,101910.00
2022-11-26T04:24:24.278Z,101911.00
2022-11-26T04:26:51.210Z,101917.00
2022-11-26T04:29:18.143Z,101925.00
2022-11-26T04:31:44.985Z,101924.00
2022-11-26T04:34:11.758Z,101919.00
2022-11-26T04:36:39.540Z,101923.00
2022-11-26T04:39:06.692Z,101936.00
2022-11-26T04:41:33.734Z,101935.00
2022-11-26T04:44:00.496Z,101938.00
2022-11-26T04:46:27.248Z,101949.00
2022-11-26T04:48:54.166Z,101945.00
2022-11-26T04:51:20.982Z,101945.00
2022-11-26T04:53:47.785Z,101950.00
2022-11-26T04:56:14.565Z,101962.00
2022-11-26T04:58:41.352Z,101965.00
2022-11-26T05:01:08.327Z,101970.00
2022-11-26T05:03:36.788Z,101971.00
2022-11-26T05:06:04.502Z,101969.00
2022-11-26T05:08:31.637Z,101980.00
2022-11-26T05:10:59.562Z,101988.00
2022-11-26T05:13:26.331Z,101987.00
2022-11-26T05:15:53.075Z,101987.00
2022-11-26T05:18:19.860Z,102001.00
2022-11-26T05:20:46.637Z,101995.00
2022-11-26T05:23:13.524Z,102000.00
2022-11-26T05:25:40.345Z,102003.00
2022-11-26T05:28:07.185Z,102003.00
2022-11-26T05:30:34.635Z,101988.00
2022-11-26T05:33:01.438Z,102007.00
2022-11-26T05:35:28.242Z,102012.00
2022-11-26T05:37:55.018Z,102012.00
2022-11-26T05:40:22.067Z,102012.00
2022-11-26T05:42:48.950Z,102023.00
2022-11-26T05:45:16.559Z,102033.00
2022-11-26T05:47:43.405Z,102021.00
2022-11-26T05:50:10.793Z,102029.00
2022-11-26T05:52:37.514Z,102031.00
2022-11-26T05:55:04.717Z,102016.00
2022-11-26T05:57:31.485Z,102029.00
2022-11-26T05:59:58.445Z,102038.00
2022-11-26T06:02:25.489Z,102041.00
2022-11-26T06:04:52.308Z,102031.00
2022-11-26T06:07:19.117Z,102042.00
2022-11-26T06:09:45.898Z,102051.00
2022-11-26T06:12:12.613Z,102052.00
2022-11-26T06:14:43.144Z,102048.00
2022-11-26T06:17:11.256Z,102057.00
2022-11-26T06:19:38.853Z,102054.00
2022-11-26T06:22:05.717Z,102061.00
2022-11-26T06:24:32.637Z,102069.00
2022-11-26T06:26:59.492Z,102066.00
2022-11-26T06:29:28.196Z,102067.00
2022-11-26T06:31:55.411Z,102082.00
2022-11-26T06:34:22.741Z,102086.00
2022-11-26T06:36:49.497Z,102088.00
2022-11-26T06:39:16.265Z,102081.00
2022-11-26T06:41:43.060Z,102087.00
2022-11-26T06:44:10.008Z,102094.00
2022-11-26T06:46:37.287Z,102093.00
2022-11-26T06:49:06.214Z,102103.00
2022-11-26T06:51:33.751Z,102099.00
2022-11-26T06:54:00.903Z,102111.00
2022-11-26T06:56:27.781Z,102119.00
2022-11-26T06:58:57.935Z,102120.00
2022-11-26T07:01:26.884Z,102115.00
2022-11-26T07:03:54.677Z,102127.00
2022-11-26T07:06:25.837Z,102118.00
2022-11-26T07:08:55.169Z,102130.00
2022-11-26T07:11:22.954Z,102139.00
2022-11-26T07:13:49.833Z,102142.00
2022-11-26T07:16:17.245Z,102142.00
2022-11-26T07:18:49.872Z,102144.00
2022-11-26T07:21:17.060Z,102144.00
2022-11-26T07:23:44.029Z,102147.00
2022-11-26T07:26:12.644Z,102151.00
2022-11-26T07:28:39.928Z,102155.00
2022-11-26T07:31:16.584Z,102150.00
2022-11-26T07:33:45.254Z,102157.00
2022-11-26T07:36:20.892Z,102157.00
2022-11-26T07:38:49.228Z,102161.00
2022-11-26T07:41:19.161Z,102156.00
2022-11-26T07:43:46.901Z,102165.00
2022-11-26T07:46:17.877Z,102167.00
2022-11-26T07:48:45.152Z,102168.00
2022-11-26T07:51:37.417Z,102165.00
2022-11-26T07:54:07.747Z,102171.00
2022-11-26T07:56:35.044Z,102179.00
2022-11-26T07:59:02.703Z,102177.00
2022-11-26T08:01:30.403Z,102182.00
2022-11-26T08:03:59.449Z,102180.00
2022-11-26T08:06:29.696Z,102185.00
2022-11-26T08:08:59.154Z,102184.00
2022-11-26T08:11:29.933Z,102181.00
2022-11-26T08:14:06.887Z,102196.00
2022-11-26T08:16:34.776Z,102190.00
2022-11-26T08:19:06.175Z,102197.00
2022-11-26T08:21:34.230Z,102198.00
2022-11-26T08:24:01.133Z,102196.00
2022-11-26T08:26:34.553Z,102202.00
2022-11-26T08:29:04.406Z,102208.00
2022-11-26T08:31:31.237Z,102215.00
2022-11-26T08:34:00.159Z,102221.00
2022-11-26T08:36:28.955Z,102216.00
2022-11-26T08:38:56.642Z,102218.00
2022-11-26T08:41:23.904Z,102216.00
2022-11-26T08:44:08.066Z,102218.00
2022-11-26T08:46:37.903Z,102235.00
2022-11-26T08:49:06.514Z,102230.00
2022-11-26T08:51:33.990Z,102224.00
2022-11-26T08:54:01.017Z,102235.00
2022-11-26T08:56:27.834Z,102239.00
2022-11-26T08:58:54.616Z,102235.00
2022-11-26T09:01:26.467Z,102249.00
2022-11-26T09:03:59.666Z,102247.00
2022-11-26T09:06:30.125Z,102253.00
2022-11-26T09:09:12.580Z,102257.00
2022-11-26T09:11:50.829Z,102264.00
2022-11-26T09:14:25.165Z,102262.00
2022-11-26T09:16:57.558Z,102266.00
2022-11-26T09:19:25.226Z,102275.00
2022-11-26T09:21:52.169Z,102275.00
2022-11-26T09:24:19.210Z,102279.00
2022-11-26T09:26:48.276Z,102278.00
2022-11-26T09:29:18.786Z,102283.00
2022-11-26T09:32:15.484Z,102282.00
2022-11-26T09:34:33.997Z,102285.00
2022-11-26T09:37:00.829Z,102283.00
2022-11-26T09:39:28.112Z,102290.00
2022-11-26T09:42:08.884Z,102300.00
2022-11-26T09:45:10.311Z,102298.00
2022-11-26T09:47:44.329Z,102300.00
2022-11-26T09:50:11.024Z,102303.00
2022-11-26T09:53:20.854Z,102295.00
2022-11-26T09:55:52.866Z,102303.00
2022-11-26T09:58:53.623Z,102311.00
2022-11-26T10:01:22.930Z,102310.00
2022-11-26T10:03:51.774Z,102318.00
2022-11-26T10:06:42.704Z,102305.00
2022-11-26T10:09:49.533Z,102316.00
2022-11-26T10:12:32.012Z,102327.00
2022-11-26T10:15:38.716Z,102325.00
2022-11-26T10:18:37.378Z,102320.00
2022-11-26T10:21:37.839Z,102317.00
2022-11-26T10:24:32.062Z,102313.00
2022-11-26T10:27:09.942Z,102324.00
2022-11-26T10:29:43.610Z,102332.00
2022-11-26T10:32:26.237Z,102327.00
2022-11-26T10:34:58.415Z,102326.00
2022-11-26T10:37:28.271Z,102340.00
2022-11-26T10:40:26.437Z,102342.00
2022-11-26T10:43:08.417Z,102342.00
2022-11-26T10:45:56.514Z,102340.00
2022-11-26T10:48:28.521Z,102344.00
2022-11-26T10:51:06.330Z,102339.00
2022-11-26T10:54:01.897Z,102347.00
2022-11-26T10:56:39.285Z,102355.00
2022-11-26T10:59:25.457Z,102356.00
2022-11-26T11:01:57.529Z,102358.00
2022-11-26T11:04:31.726Z,102365.00
2022-11-26T11:06:59.176Z,102354.00
2022-11-26T11:09:36.722Z,102366.00
2022-11-26T11:12:23.686Z,102366.00
2022-11-26T11:14:51.819Z,102361.00
2022-11-26T11:17:33.664Z,102363.00
2022-11-26T11:20:34.445Z,102367.00
2022-11-26T11:23:10.490Z,102371.00
2022-11-26T11:25:44.895Z,102366.00
2022-11-26T11:28:20.151Z,102369.00
2022-11-26T11:30:59.119Z,102381.00
2022-11-26T11:33:28.801Z,102376.00
2022-11-26T11:36:15.049Z,102377.00
2022-11-26T11:38:59.487Z,102389.00
2022-11-26T11:41:47.460Z,102375.00
2022-11-26T11:44:45.901Z,102377.00
2022-11-26T11:47:34.406Z,102384.00
2022-11-26T11:50:34.977Z,102374.00
2022-11-26T11:53:35.018Z,102383.00
2022-11-26T11:56:44.423Z,102377.00
2022-11-26T11:59:47.941Z,102384.00
2022-11-26T12:03:12.467Z,102382.00
2022-11-26T12:05:52.728Z,102383.00
2022-11-26T12:09:07.706Z,102386.00
2022-11-26T12:12:15.582Z,102383.00
2022-11-26T12:14:55.421Z,102395.00
2022-11-26T12:17:58.433Z,102388.00
2022-11-26T12:20:44.954Z,102386.00
2022-11-26T12:23:30.486Z,102386.00
2022-11-26T12:26:16.095Z,102376.00
2022-11-26T12:28:58.577Z,102368.00
2022-11-26T12:31:49.738Z,102374.00
2022-11-26T12:34:33.483Z,102383.00
2022-11-26T12:37:21.677Z,102387.00
2022-11-26T12:39:56.216Z,102381.00
2022-11-26T12:42:45.239Z,102378.00
2022-11-26T12:45:38.865Z,102374.00
2022-11-26T12:48:43.421Z,102368.00
2022-11-26T12:51:27.955Z,102368.00
2022-11-26T12:54:23.880Z,102384.00
2022-11-26T12:57:19.808Z,102385.00
2022-11-26T13:00:00.939Z,102378.00
2022-11-26T13:02:36.701Z,102382.00
2022-11-26T13:05:04.866Z,102378.00
2022-11-26T13:07:53.392Z,102381.00
2022-11-26T13:10:44.627Z,102391.00
2022-11-26T13:13:22.971Z,102391.00
2022-11-26T13:16:34.899Z,102398.00
2022-11-26T13:19:12.031Z,102405.00
2022-11-26T13:22:12.756Z,102400.00
2022-11-26T13:25:17.492Z,102394.00
2022-11-26T13:27:56.001Z,102399.00
2022-11-26T13:30:49.429Z,102402.00
2022-11-26T13:33:37.957Z,102402.00
2022-11-26T13:36:33.324Z,102400.00
2022-11-26T13:39:51.489Z,102402.00
2022-11-26T13:42:56.113Z,102397.00
2022-11-26T13:45:34.943Z,102405.00
2022-11-26T13:48:14.769Z,102414.00
2022-11-26T13:50:58.325Z,102414.00
2022-11-26T13:53:38.127Z,102404.00
2022-11-26T13:56:08.187Z,102402.00
2022-11-26T13:58:48.975Z,102412.00
2022-11-26T14:01:33.559Z,102414.00
2022-11-26T14:04:00.543Z,102424.00
2022-11-26T14:06:28.075Z,102423.00
2022-11-26T14:08:56.284Z,102431.00
2022-11-26T14:11:41.536Z,102418.00
2022-11-26T14:14:26.299Z,102427.00
2022-11-26T14:17:13.876Z,102420.00
2022-11-26T14:19:40.607Z,102418.00
2022-11-26T14:22:25.637Z,102426.00
2022-11-26T14:24:56.747Z,102423.00
2022-11-26T14:27:34.226Z,102418.00
2022-11-26T14:30:07.201Z,102422.00
2022-11-26T14:32:49.600Z,102423.00
2022-11-26T14:35:34.031Z,102431.00
2022-11-26T14:38:04.663Z,102435.00
2022-11-26T14:40:38.513Z,102425.00
2022-11-26T14:43:20.060Z,102421.00
2022-11-26T14:45:59.821Z,102419.00
2022-11-26T14:48:29.366Z,102421.00
2022-11-26T14:51:00.285Z,102424.00
2022-11-26T14:53:32.035Z,102434.00
2022-11-26T14:55:59.607Z,102426.00
2022-11-26T14:58:42.106Z,102438.00
2022-11-26T15:01:21.094Z,102440.00
2022-11-26T15:04:01.527Z,102438.00
2022-11-26T15:06:38.795Z,102434.00
2022-11-26T15:09:15.059Z,102442.00
2022-11-26T15:12:01.199Z,102442.00
2022-11-26T15:14:50.577Z,102450.00
2022-11-26T15:17:22.032Z,102450.00
2022-11-26T15:19:52.576Z,102449.00
2022-11-26T15:22:49.973Z,102444.00
2022-11-26T15:25:29.702Z,102453.00
2022-11-26T15:28:04.007Z,102463.00
2022-11-26T15:30:37.401Z,102451.00
2022-11-26T15:33:12.732Z,102459.00
2022-11-26T15:35:40.868Z,102448.00
2022-11-26T15:38:22.614Z,102452.00
2022-11-26T15:41:05.216Z,102454.00
2022-11-26T15:43:42.960Z,102453.00
2022-11-26T15:46:27.794Z,102448.00
2022-11-26T15:49:09.559Z,102445.00
2022-11-26T15:51:53.804Z,102440.00
2022-11-26T15:54:24.287Z,102437.00
2022-11-26T15:57:01.619Z,102436.00
2022-11-26T15:59:46.678Z,102440.00
2022-11-26T16:02:25.700Z,102441.00
2022-11-26T16:04:58.277Z,102450.00
2022-11-26T16:07:28.788Z,102451.00
2022-11-26T16:10:24.906Z,102450.00
2022-11-26T16:13:14.943Z,102456.00
2022-11-26T16:16:06.006Z,102457.00
2022-11-26T16:19:01.196Z,102459.00
2022-11-26T16:21:34.292Z,102455.00
2022-11-26T16:24:05.563Z,102453.00
2022-11-26T16:26:57.539Z,102451.00
2022-11-26T16:29:25.857Z,102460.00
2022-11-26T16:31:52.600Z,102459.00
2022-11-26T16:34:19.978Z,102454.00
2022-11-26T16:36:47.309Z,102457.00
2022-11-26T16:39:16.699Z,102454.00
2022-11-26T16:41:43.760Z,102459.00
2022-11-26T16:44:10.704Z,102464.00
2022-11-26T16:46:38.829Z,102458.00
2022-11-26T16:49:05.698Z,102459.00
2022-11-26T16:51:32.640Z,102462.00
2022-11-26T16:53:59.558Z,102467.00
2022-11-26T16:56:37.301Z,102474.00
2022-11-26T16:59:13.666Z,102486.00
2022-11-26T17:01:40.569Z,102494.00
2022-11-26T17:04:07.357Z,102489.00
2022-11-26T17:06:34.458Z,102489.00
2022-11-26T17:09:01.754Z,102496.00
2022-11-26T17:11:28.912Z,102499.00
2022-11-26T17:13:55.785Z,102496.00
2022-11-26T17:16:23.936Z,102508.00
2022-11-26T17:18:50.957Z,102504.00
2022-11-26T17:21:17.822Z,102501.00
2022-11-26T17:23:44.613Z,102496.00
2022-11-26T17:26:20.930Z,102508.00
2022-11-26T17:28:48.849Z,102503.00
2022-11-26T17:31:15.993Z,102510.00
2022-11-26T17:33:43.102Z,102507.00
2022-11-26T17:36:20.126Z,102506.00
2022-11-26T17:38:48.468Z,102506.00
2022-11-26T17:41:16.904Z,102507.00
2022-11-26T17:43:43.944Z,102501.00
2022-11-26T17:46:16.865Z,102512.00
2022-11-26T17:48:43.962Z,102509.00
2022-11-26T17:51:15.074Z,102499.00
2022-11-26T17:53:43.083Z,102503.00
2022-11-26T17:56:23.300Z,102506.00
2022-11-26T17:58:50.528Z,102503.00
2022-11-26T18:01:18.013Z,102506.00
2022-11-26T18:03:46.049Z,102506.00
2022-11-26T18:06:38.557Z,102504.00
2022-11-26T18:09:05.402Z,102510.00
2022-11-26T18:11:54.634Z,102508.00
2022-11-26T18:14:22.601Z,102494.00
2022-11-26T18:16:50.163Z,102509.00
2022-11-26T18:19:21.029Z,102508.00
2022-11-26T18:21:50.729Z,102516.00
2022-11-26T18:24:18.315Z,102520.00
2022-11-26T18:26:45.948Z,102516.00
2022-11-26T18:29:13.582Z,102516.00
2022-11-26T18:31:40.498Z,102513.00
2022-11-26T18:34:08.771Z,102513.00
2022-11-26T18:36:35.574Z,102507.00
2022-11-26T18:39:04.738Z,102506.00
2022-11-26T18:41:32.682Z,102500.00
2022-11-26T18:44:01.407Z,102500.00
2022-11-26T18:46:29.205Z,102494.00
2022-11-26T18:48:57.778Z,102486.00
2022-11-26T18:51:24.945Z,102497.00
2022-11-26T18:53:51.932Z,102488.00
2022-11-26T18:56:24.829Z,102487.00
2022-11-26T18:58:52.342Z,102485.00
2022-11-26T19:01:25.147Z,102487.00
2022-11-26T19:03:52.707Z,102489.00
2022-11-26T19:06:27.790Z,102496.00
2022-11-26T19:09:05.882Z,102494.00
2022-11-26T19:11:33.960Z,102498.00
2022-11-26T19:14:01.095Z,102489.00
2022-11-26T19:16:28.747Z,102489.00
2022-11-26T19:18:55.731Z,102489.00
2022-11-26T19:21:25.568Z,102485.00
2022-11-26T19:23:53.688Z,102487.00
2022-11-26T19:26:21.325Z,102483.00
2022-11-26T19:28:48.643Z,102483.00
2022-11-26T19:31:19.016Z,102480.00
2022-11-26T19:33:47.605Z,102487.00
2022-11-26T19:36:17.082Z,102485.00
2022-11-26T19:38:45.737Z,102481.00
2022-11-26T19:41:13.424Z,102487.00
2022-11-26T19:43:42.313Z,102486.00
2022-11-26T19:46:20.600Z,102474.00
2022-11-26T19:48:49.749Z,102475.00
2022-11-26T19:51:19.842Z,102481.00
2022-11-26T19:53:53.456Z,102476.00
2022-11-26T19:56:29.907Z,102475.00
2022-11-26T19:58:58.672Z,102478.00
2022-11-26T20:01:30.098Z,102478.00
2022-11-26T20:04:04.054Z,102483.00
2022-11-26T20:06:33.292Z,102487.00
2022-11-26T20:09:00.703Z,102485.00
2022-11-26T20:11:28.846Z,102489.00
2022-11-26T20:13:57.025Z,102485.00
2022-11-26T20:16:29.888Z,102480.00
2022-11-26T20:18:58.329Z,102477.00
2022-11-26T20:21:34.453Z,102488.00
2022-11-26T20:24:06.695Z,102483.00
2022-11-26T20:26:37.555Z,102482.00
2022-11-26T20:29:11.872Z,102483.00
2022-11-26T20:31:49.921Z,102483.00
2022-11-26T20:34:20.750Z,102487.00
2022-11-26T20:36:48.376Z,102487.00
2022-11-26T20:39:20.252Z,102482.00
2022-11-26T20:41:47.966Z,102500.00
2022-11-26T20:44:15.006Z,102495.00
2022-11-26T20:46:42.241Z,102494.00
2022-11-26T20:49:13.106Z,102485.00
2022-11-26T20:51:40.223Z,102483.00
2022-11-26T20:54:07.008Z,102493.00
2022-11-26T20:56:34.097Z,102498.00
2022-11-26T20:59:01.966Z,102495.00
2022-11-26T21:01:29.766Z,102490.00
2022-11-26T21:03:57.463Z,102495.00
2022-11-26T21:06:30.188Z,102500.00
2022-11-26T21:09:01.233Z,102492.00
2022-11-26T21:11:28.945Z,102498.00
2022-11-26T21:13:57.877Z,102476.00
2022-11-26T21:16:24.665Z,102482.00
2022-11-26T21:18:54.592Z,102487.00
2022-11-26T21:21:23.288Z,102487.00
2022-11-26T21:23:50.724Z,102497.00
2022-11-26T21:26:24.556Z,102482.00
2022-11-26T21:28:57.365Z,102496.00
2022-11-26T21:31:25.375Z,102473.00
2022-11-26T21:34:01.929Z,102481.00
2022-11-26T21:36:31.719Z,102483.00
2022-11-26T21:38:58.695Z,102488.00
2022-11-26T21:41:26.054Z,102484.00
2022-11-26T21:43:53.210Z,102494.00
2022-11-26T21:46:26.807Z,102490.00
2022-11-26T21:48:56.199Z,102496.00
2022-11-26T21:51:26.538Z,102482.00
2022-11-26T21:53:55.903Z,102481.00
2022-11-26T21:56:32.026Z,102475.00
2022-11-26T21:59:00.518Z,102485.00
2022-11-26T22:01:36.689Z,102486.00
2022-11-26T22:04:21.841Z,102483.00
2022-11-26T22:06:49.580Z,102492.00
2022-11-26T22:09:17.470Z,102487.00
2022-11-26T22:11:46.030Z,102492.00
2022-11-26T22:14:17.023Z,102495.00
2022-11-26T22:16:43.903Z,102492.00
2022-11-26T22:19:11.113Z,102489.00
2022-11-26T22:21:41.480Z,102489.00
2022-11-26T22:24:14.457Z,102494.00
2022-11-26T22:26:42.888Z,102485.00
2022-11-26T22:29:13.890Z,102486.00
2022-11-26T22:31:41.305Z,102497.00
2022-11-26T22:34:16.040Z,102495.00
2022-11-26T22:36:44.442Z,102495.00
2022-11-26T22:39:15.299Z,102491.00
2022-11-26T22:41:45.093Z,102497.00
2022-11-26T22:44:13.929Z,102488.00
2022-11-26T22:46:40.685Z,102490.00
2022-11-26T22:49:11.845Z,102487.00
2022-11-26T22:51:38.756Z,102492.00
2022-11-26T22:54:08.038Z,102496.00
2022-11-26T22:56:38.043Z,102485.00
2022-11-26T22:59:07.471Z,102498.00
2022-11-26T23:01:37.011Z,102494.00
2022-11-26T23:04:07.757Z,102500.00
2022-11-26T23:06:35.998Z,102490.00
2022-11-26T23:09:06.701Z,102488.00
2022-11-26T23:11:38.291Z,102486.00
2022-11-26T23:14:07.556Z,102493.00
2022-11-26T23:16:37.006Z,102492.00
2022-11-26T23:19:04.606Z,102485.00
2022-11-26T23:21:36.780Z,102481.00
2022-11-26T23:24:04.697Z,102488.00
2022-11-26T23:26:34.423Z,102488.00
2022-11-26T23:29:03.853Z,102486.00
2022-11-26T23:31:38.062Z,102484.00
2022-11-26T23:34:05.773Z,102479.00
2022-11-26T23:36:34.043Z,102484.00
2022-11-26T23:39:03.009Z,102483.00
2022-11-26T23:41:29.991Z,102486.00
2022-11-26T23:43:56.947Z,102479.00
2022-11-26T23:46:31.038Z,102477.00
2022-11-26T23:48:58.668Z,102484.00
2022-11-26T23:51:30.186Z,102475.00
2022-11-26T23:53:57.588Z,102468.00
2022-11-26T23:56:31.734Z,102475.00
2022-11-26T23:59:02.680Z,102482.00
